Huvudsida
METAR-TAF:

METAR-TAF

Flygplatser :

Yüksekova, Turkiet

latitud: 37-33-06N, longitud: 44-14-01E, höjd: 1950 m

Aktuellt väderrapport

Denna rapport gjordes för 14 timmar och 51 minuter sedan, klockan 12:50 UTC
Vind 6 kt från ost, varierande mellan nordost och ost/sydost
Temperatur 5°C
Fuktighet 38%
Tryck 1022 hPa
Sikt 10 km eller mer
Spridda moln på en höjd av 3500 ft

METAR: LTCW 191250Z 08006KT 050V120 9999 SCT035 05/M08 Q1022

Tid: 06:41 (03:41 UTC)

Väderprognos

Denna rapport gjordes för 2 timmar och 1 minuter sedan, klockan 01:40 UTC
Prognos gäller från 20 kl. 03 UTC till 20 kl. 12 UTC
Vind 9 kt från väst/nordväst
Sikt 10 km eller mer
Få moln på en höjd av 4000 ft
Temporärt
från 20 kl. 06 UTC till 20 kl. 08 UTC
Sikt: 4000 m
fuktdis
Blir
från 20 kl. 08 UTC till 20 kl. 10 UTC
Vind 10 kt från ost
Sikt 10 km eller mer
Inga moln under 1 500 m eller inga cumulonimbus

TAF: LTCW 200140Z 2003/2012 30009KT 9999 FEW040 TEMPO 2006/2008 4000 BR BECMG 2008/2010 09010KT CAVOK

Aktuella väderrapporter och prognoser från 4000 flygplatser (METAR- och TAF-rapporter).

De tillgängliga stationerna syns som gula och röda prickar på kartan.

För musen över prickarna för att se namnen på stationerna.

Klicka sedan för att få väderrapporter och prognoser.

För att ändra kartan: Klicka på de gröna knapparna med ett svart kors på för att zooma in; den gröna knappen med ett streck på för att zooma ut; eller på de gröna pilarna för angränsande kartor.


METAR-TAF: